sensor_id;sensor_type;location;lat;lon;timestamp;pressure;altitude;pressure_sealevel;temperature;humidity
62710;BME280;48770;51.624;5.886;2023-02-21T00:00:14;101917.88;;;19.95;41.42
62710;BME280;48770;51.624;5.886;2023-02-21T00:02:58;101920.34;;;19.97;41.45
62710;BME280;48770;51.624;5.886;2023-02-21T00:05:42;101915.34;;;19.77;41.78
62710;BME280;48770;51.624;5.886;2023-02-21T00:08:26;101917.03;;;19.86;41.72
62710;BME280;48770;51.624;5.886;2023-02-21T00:11:10;101906.13;;;19.90;41.63
62710;BME280;48770;51.624;5.886;2023-02-21T00:13:54;101916.31;;;19.72;42.05
62710;BME280;48770;51.624;5.886;2023-02-21T00:16:37;101924.38;;;19.82;41.81
62710;BME280;48770;51.624;5.886;2023-02-21T00:19:21;101919.53;;;19.65;42.07
62710;BME280;48770;51.624;5.886;2023-02-21T00:22:05;101917.84;;;19.78;41.77
62710;BME280;48770;51.624;5.886;2023-02-21T00:24:49;101919.31;;;19.84;41.64
62710;BME280;48770;51.624;5.886;2023-02-21T00:27:33;101922.63;;;19.64;42.01
62710;BME280;48770;51.624;5.886;2023-02-21T00:30:17;101920.06;;;19.76;41.76
62710;BME280;48770;51.624;5.886;2023-02-21T00:33:01;101920.00;;;19.59;41.88
62710;BME280;48770;51.624;5.886;2023-02-21T00:35:45;101917.94;;;19.73;41.83
62710;BME280;48770;51.624;5.886;2023-02-21T00:38:29;101914.78;;;19.57;42.15
62710;BME280;48770;51.624;5.886;2023-02-21T00:41:13;101910.25;;;19.70;41.67
62710;BME280;48770;51.624;5.886;2023-02-21T00:43:56;101922.59;;;19.55;42.08
62710;BME280;48770;51.624;5.886;2023-02-21T00:46:41;101916.13;;;19.68;41.77
62710;BME280;48770;51.624;5.886;2023-02-21T00:49:25;101921.25;;;19.53;42.14
62710;BME280;48770;51.624;5.886;2023-02-21T00:52:09;101909.25;;;19.66;41.74
62710;BME280;48770;51.624;5.886;2023-02-21T00:54:53;101910.75;;;19.72;41.58
62710;BME280;48770;51.624;5.886;2023-02-21T00:57:37;101919.00;;;19.55;42.22
62710;BME280;48770;51.624;5.886;2023-02-21T01:00:23;101913.69;;;19.67;41.87
62710;BME280;48770;51.624;5.886;2023-02-21T01:03:07;101909.13;;;19.71;41.71
62710;BME280;48770;51.624;5.886;2023-02-21T01:05:53;101905.38;;;19.76;41.79
62710;BME280;48770;51.624;5.886;2023-02-21T01:08:42;101892.31;;;19.76;41.77
62710;BME280;48770;51.624;5.886;2023-02-21T01:11:25;101898.69;;;19.77;41.54
62710;BME280;48770;51.624;5.886;2023-02-21T01:14:09;101901.19;;;19.78;41.53
62710;BME280;48770;51.624;5.886;2023-02-21T01:16:54;101895.63;;;19.78;41.67
62710;BME280;48770;51.624;5.886;2023-02-21T01:19:37;101898.94;;;19.58;42.09
62710;BME280;48770;51.624;5.886;2023-02-21T01:22:21;101889.53;;;19.67;41.71
62710;BME280;48770;51.624;5.886;2023-02-21T01:25:05;101886.31;;;19.52;42.13
62710;BME280;48770;51.624;5.886;2023-02-21T01:27:49;101887.72;;;19.63;41.80
62710;BME280;48770;51.624;5.886;2023-02-21T01:30:33;101896.72;;;19.68;41.86
62710;BME280;48770;51.624;5.886;2023-02-21T01:33:17;101879.75;;;19.70;41.89
62710;BME280;48770;51.624;5.886;2023-02-21T01:36:04;101894.94;;;19.73;41.61
62710;BME280;48770;51.624;5.886;2023-02-21T01:38:49;101887.41;;;19.73;41.80
62710;BME280;48770;51.624;5.886;2023-02-21T01:41:33;101884.66;;;19.73;41.43
62710;BME280;48770;51.624;5.886;2023-02-21T01:44:41;101884.97;;;19.71;41.66
62710;BME280;48770;51.624;5.886;2023-02-21T01:47:25;101888.56;;;19.72;41.57
62710;BME280;48770;51.624;5.886;2023-02-21T01:50:30;101885.28;;;19.70;41.56
62710;BME280;48770;51.624;5.886;2023-02-21T01:53:23;101881.38;;;19.71;41.71
62710;BME280;48770;51.624;5.886;2023-02-21T01:56:07;101874.19;;;19.70;41.68
62710;BME280;48770;51.624;5.886;2023-02-21T01:58:55;101872.22;;;19.70;41.61
62710;BME280;48770;51.624;5.886;2023-02-21T02:01:50;101874.19;;;19.70;41.46
62710;BME280;48770;51.624;5.886;2023-02-21T02:04:34;101869.78;;;19.69;41.56
62710;BME280;48770;51.624;5.886;2023-02-21T02:07:18;101866.38;;;19.50;41.88
62710;BME280;48770;51.624;5.886;2023-02-21T02:10:03;101872.84;;;19.59;41.65
62710;BME280;48770;51.624;5.886;2023-02-21T02:12:52;101871.06;;;19.63;41.75
62710;BME280;48770;51.624;5.886;2023-02-21T02:15:37;101863.22;;;19.65;41.54
62710;BME280;48770;51.624;5.886;2023-02-21T02:23:56;101859.00;;;19.67;41.76
62710;BME280;48770;51.624;5.886;2023-02-21T02:35:07;101856.06;;;19.64;41.61
62710;BME280;48770;51.624;5.886;2023-02-21T02:37:51;101868.28;;;19.63;41.64
62710;BME280;48770;51.624;5.886;2023-02-21T02:43:15;101872.69;;;19.64;41.45
62710;BME280;48770;51.624;5.886;2023-02-21T02:48:32;101869.91;;;19.64;41.54
62710;BME280;48770;51.624;5.886;2023-02-21T02:51:02;101867.97;;;19.64;41.44
62710;BME280;48770;51.624;5.886;2023-02-21T02:53:29;101866.00;;;19.65;41.43
62710;BME280;48770;51.624;5.886;2023-02-21T02:56:00;101864.06;;;19.65;41.55
62710;BME280;48770;51.624;5.886;2023-02-21T02:58:36;101852.94;;;19.65;41.47
62710;BME280;48770;51.624;5.886;2023-02-21T03:12:02;101840.88;;;19.61;41.57
62710;BME280;48770;51.624;5.886;2023-02-21T03:14:36;101842.50;;;19.62;41.42
62710;BME280;48770;51.624;5.886;2023-02-21T03:17:06;101846.41;;;19.61;41.47
62710;BME280;48770;51.624;5.886;2023-02-21T03:19:37;101838.91;;;19.62;41.38
62710;BME280;48770;51.624;5.886;2023-02-21T03:22:09;101843.31;;;19.63;41.50
62710;BME280;48770;51.624;5.886;2023-02-21T03:24:36;101843.63;;;19.61;41.33
62710;BME280;48770;51.624;5.886;2023-02-21T03:27:05;101845.28;;;19.62;41.35
62710;BME280;48770;51.624;5.886;2023-02-21T03:29:32;101842.81;;;19.61;41.43
62710;BME280;48770;51.624;5.886;2023-02-21T03:32:16;101838.41;;;19.60;41.68
62710;BME280;48770;51.624;5.886;2023-02-21T03:34:42;101834.50;;;19.61;41.45
62710;BME280;48770;51.624;5.886;2023-02-21T03:37:10;101841.19;;;19.60;41.35
62710;BME280;48770;51.624;5.886;2023-02-21T03:39:42;101840.69;;;19.58;41.47
62710;BME280;48770;51.624;5.886;2023-02-21T03:42:07;101835.13;;;19.58;41.83
62710;BME280;48770;51.624;5.886;2023-02-21T03:44:33;101844.28;;;19.58;41.37
62710;BME280;48770;51.624;5.886;2023-02-21T03:46:58;101841.81;;;19.57;42.01
62710;BME280;48770;51.624;5.886;2023-02-21T03:49:23;101854.56;;;19.58;41.24
62710;BME280;48770;51.624;5.886;2023-02-21T03:51:49;101851.28;;;19.56;41.52
62710;BME280;48770;51.624;5.886;2023-02-21T03:54:14;101856.50;;;19.57;41.49
62710;BME280;48770;51.624;5.886;2023-02-21T03:56:39;101845.41;;;19.57;41.47
62710;BME280;48770;51.624;5.886;2023-02-21T03:59:04;101855.69;;;19.57;41.31
62710;BME280;48770;51.624;5.886;2023-02-21T04:01:30;101851.28;;;19.56;41.47
62710;BME280;48770;51.624;5.886;2023-02-21T04:03:55;101850.47;;;19.55;41.35
62710;BME280;48770;51.624;5.886;2023-02-21T04:06:21;101847.69;;;19.55;41.43
62710;BME280;48770;51.624;5.886;2023-02-21T04:08:46;101846.88;;;19.55;41.52
62710;BME280;48770;51.624;5.886;2023-02-21T04:11:11;101841.34;;;19.55;41.44
62710;BME280;48770;51.624;5.886;2023-02-21T04:13:36;101838.56;;;19.55;41.48
62710;BME280;48770;51.624;5.886;2023-02-21T04:16:02;101832.19;;;19.54;41.44
62710;BME280;48770;51.624;5.886;2023-02-21T04:18:28;101828.59;;;19.54;41.35
62710;BME280;48770;51.624;5.886;2023-02-21T04:20:53;101830.56;;;19.53;41.16
62710;BME280;48770;51.624;5.886;2023-02-21T04:23:20;101828.59;;;19.54;41.35
62710;BME280;48770;51.624;5.886;2023-02-21T04:25:46;101822.22;;;19.53;41.60
62710;BME280;48770;51.624;5.886;2023-02-21T04:28:12;101825.81;;;19.54;41.51
62710;BME280;48770;51.624;5.886;2023-02-21T04:30:37;101825.28;;;19.52;41.25
62710;BME280;48770;51.624;5.886;2023-02-21T04:33:03;101831.38;;;19.54;41.35
62710;BME280;48770;51.624;5.886;2023-02-21T04:35:29;101836.41;;;19.52;41.46
62710;BME280;48770;51.624;5.886;2023-02-21T04:37:54;101826.13;;;19.52;41.37
62710;BME280;48770;51.624;5.886;2023-02-21T04:40:20;101830.84;;;19.52;41.56
62710;BME280;48770;51.624;5.886;2023-02-21T04:42:45;101823.34;;;19.52;41.48
62710;BME280;48770;51.624;5.886;2023-02-21T04:45:11;101830.00;;;19.51;41.18
62710;BME280;48770;51.624;5.886;2023-02-21T04:47:37;101828.06;;;19.52;41.30
62710;BME280;48770;51.624;5.886;2023-02-21T04:50:03;101827.53;;;19.50;41.43
62710;BME280;48770;51.624;5.886;2023-02-21T04:52:28;101823.63;;;19.51;41.52
62710;BME280;48770;51.624;5.886;2023-02-21T04:54:53;101813.66;;;19.50;41.43
62710;BME280;48770;51.624;5.886;2023-02-21T04:57:19;101819.22;;;19.50;41.24
62710;BME280;48770;51.624;5.886;2023-02-21T04:59:44;101816.78;;;19.48;41.45
62710;BME280;48770;51.624;5.886;2023-02-21T05:02:10;101817.59;;;19.49;41.38
62710;BME280;48770;51.624;5.886;2023-02-21T05:04:36;101814.81;;;19.49;41.57
62710;BME280;48770;51.624;5.886;2023-02-21T05:07:02;101813.19;;;19.48;41.27
62710;BME280;48770;51.624;5.886;2023-02-21T05:09:27;101810.41;;;19.48;41.23
62710;BME280;48770;51.624;5.886;2023-02-21T05:11:52;101817.91;;;19.47;41.37
62710;BME280;48770;51.624;5.886;2023-02-21T05:14:18;101815.47;;;19.46;41.53
62710;BME280;48770;51.624;5.886;2023-02-21T05:16:43;101824.59;;;19.46;41.48
62710;BME280;48770;51.624;5.886;2023-02-21T05:19:09;101832.09;;;19.46;41.39
62710;BME280;48770;51.624;5.886;2023-02-21T05:21:35;101810.72;;;19.46;41.52
62710;BME280;48770;51.624;5.886;2023-02-21T05:24:07;101821.00;;;19.46;41.33
62710;BME280;48770;51.624;5.886;2023-02-21T05:26:36;101826.56;;;19.46;41.42
62710;BME280;48770;51.624;5.886;2023-02-21T05:29:02;101820.19;;;19.45;41.32
62710;BME280;48770;51.624;5.886;2023-02-21T05:31:29;101818.22;;;19.46;41.35
62710;BME280;48770;51.624;5.886;2023-02-21T05:33:55;101818.56;;;19.44;41.41
62710;BME280;48770;51.624;5.886;2023-02-21T05:36:21;101816.09;;;19.42;41.43
62710;BME280;48770;51.624;5.886;2023-02-21T05:38:51;101829.66;;;19.44;41.36
62710;BME280;48770;51.624;5.886;2023-02-21T05:41:18;101819.69;;;19.43;41.45
62710;BME280;48770;51.624;5.886;2023-02-21T05:43:45;101820.81;;;19.42;41.67
62710;BME280;48770;51.624;5.886;2023-02-21T05:46:26;101817.56;;;19.40;41.35
62710;BME280;48770;51.624;5.886;2023-02-21T05:48:52;101819.19;;;19.41;41.27
62710;BME280;48770;51.624;5.886;2023-02-21T05:51:19;101820.00;;;19.41;41.47
62710;BME280;48770;51.624;5.886;2023-02-21T05:53:44;101830.28;;;19.41;41.55
62710;BME280;48770;51.624;5.886;2023-02-21T05:56:11;101832.25;;;19.40;41.36
62710;BME280;48770;51.624;5.886;2023-02-21T05:58:37;101838.59;;;19.41;41.50
62710;BME280;48770;51.624;5.886;2023-02-21T06:01:02;101824.75;;;19.41;41.35
62710;BME280;48770;51.624;5.886;2023-02-21T06:03:28;101823.91;;;19.40;41.35
62710;BME280;48770;51.624;5.886;2023-02-21T06:05:53;101823.91;;;19.40;41.50
62710;BME280;48770;51.624;5.886;2023-02-21T06:08:18;101828.97;;;19.38;41.42
62710;BME280;48770;51.624;5.886;2023-02-21T06:10:44;101833.38;;;19.39;41.54
62710;BME280;48770;51.624;5.886;2023-02-21T06:13:09;101836.47;;;19.38;41.31
62710;BME280;48770;51.624;5.886;2023-02-21T06:15:35;101835.66;;;19.37;41.52
62710;BME280;48770;51.624;5.886;2023-02-21T06:18:00;101838.75;;;19.36;41.37
62710;BME280;48770;51.624;5.886;2023-02-21T06:20:25;101840.38;;;19.37;41.36
62710;BME280;48770;51.624;5.886;2023-02-21T06:22:50;101836.78;;;19.36;41.70
62710;BME280;48770;51.624;5.886;2023-02-21T06:25:16;101837.59;;;19.37;41.36
62710;BME280;48770;51.624;5.886;2023-02-21T06:27:41;101834.84;;;19.37;41.32
62710;BME280;48770;51.624;5.886;2023-02-21T06:30:08;101839.56;;;19.36;41.44
62710;BME280;48770;51.624;5.886;2023-02-21T06:32:34;101839.56;;;19.36;41.52
62710;BME280;48770;51.624;5.886;2023-02-21T06:34:59;101843.47;;;19.35;41.42
62710;BME280;48770;51.624;5.886;2023-02-21T06:37:25;101847.38;;;19.34;41.47
62710;BME280;48770;51.624;5.886;2023-02-21T06:39:50;101850.16;;;19.34;41.36
62710;BME280;48770;51.624;5.886;2023-02-21T06:42:16;101845.44;;;19.35;41.36
62710;BME280;48770;51.624;5.886;2023-02-21T06:44:46;101853.75;;;19.35;41.46
62710;BME280;48770;51.624;5.886;2023-02-21T06:47:11;101850.97;;;19.35;41.38
62710;BME280;48770;51.624;5.886;2023-02-21T06:49:37;101847.38;;;19.34;41.29
62710;BME280;48770;51.624;5.886;2023-02-21T06:52:03;101847.72;;;19.33;41.59
62710;BME280;48770;51.624;5.886;2023-02-21T06:54:28;101838.56;;;19.32;41.47
62710;BME280;48770;51.624;5.886;2023-02-21T06:56:55;101837.75;;;19.32;41.28
62710;BME280;48770;51.624;5.886;2023-02-21T06:59:20;101844.13;;;19.32;41.37
62710;BME280;48770;51.624;5.886;2023-02-21T07:01:45;101845.25;;;19.31;41.41
62710;BME280;48770;51.624;5.886;2023-02-21T07:04:11;101846.38;;;19.30;41.42
62710;BME280;48770;51.624;5.886;2023-02-21T07:06:37;101843.63;;;19.30;41.26
62710;BME280;48770;51.624;5.886;2023-02-21T07:09:02;101845.25;;;19.31;41.52
62710;BME280;48770;51.624;5.886;2023-02-21T07:11:30;101848.84;;;19.32;41.36
62710;BME280;48770;51.624;5.886;2023-02-21T07:13:55;101853.88;;;19.30;41.36
62710;BME280;48770;51.624;5.886;2023-02-21T07:16:23;101849.97;;;19.31;41.42
62710;BME280;48770;51.624;5.886;2023-02-21T07:18:48;101850.31;;;19.29;41.35
62710;BME280;48770;51.624;5.886;2023-02-21T07:21:14;101846.38;;;19.30;41.43
62710;BME280;48770;51.624;5.886;2023-02-21T07:23:42;101846.38;;;19.30;41.17
62710;BME280;48770;51.624;5.886;2023-02-21T07:26:08;101846.72;;;19.29;41.43
62710;BME280;48770;51.624;5.886;2023-02-21T07:28:33;101843.13;;;19.28;41.46
62710;BME280;48770;51.624;5.886;2023-02-21T07:30:58;101847.03;;;19.27;41.47
62710;BME280;48770;51.624;5.886;2023-02-21T07:33:24;101860.88;;;19.27;41.47
62710;BME280;48770;51.624;5.886;2023-02-21T07:35:49;101857.31;;;19.27;41.34
62710;BME280;48770;51.624;5.886;2023-02-21T07:38:25;101851.75;;;19.27;41.55
62710;BME280;48770;51.624;5.886;2023-02-21T07:40:53;101852.88;;;19.26;41.44
62710;BME280;48770;51.624;5.886;2023-02-21T07:43:19;101845.06;;;19.28;41.33
62710;BME280;48770;51.624;5.886;2023-02-21T07:45:44;101853.72;;;19.26;41.35
62710;BME280;48770;51.624;5.886;2023-02-21T07:48:09;101862.03;;;19.26;41.45
62710;BME280;48770;51.624;5.886;2023-02-21T07:50:39;101863.66;;;19.27;41.37
62710;BME280;48770;51.624;5.886;2023-02-21T07:53:04;101850.94;;;19.26;41.20
62710;BME280;48770;51.624;5.886;2023-02-21T07:55:30;101852.03;;;19.25;41.37
62710;BME280;48770;51.624;5.886;2023-02-21T07:57:55;101849.28;;;19.25;41.53
62710;BME280;48770;51.624;5.886;2023-02-21T08:00:20;101851.53;;;19.23;41.37
62710;BME280;48770;51.624;5.886;2023-02-21T08:02:49;101858.72;;;19.24;41.56
62710;BME280;48770;51.624;5.886;2023-02-21T08:05:15;101860.69;;;19.24;41.52
62710;BME280;48770;51.624;5.886;2023-02-21T08:07:41;101861.50;;;19.24;41.59
62710;BME280;48770;51.624;5.886;2023-02-21T08:10:07;101857.09;;;19.23;41.43
62710;BME280;48770;51.624;5.886;2023-02-21T08:12:32;101857.09;;;19.23;41.37
62710;BME280;48770;51.624;5.886;2023-02-21T08:14:58;101863.44;;;19.24;41.43
62710;BME280;48770;51.624;5.886;2023-02-21T08:17:23;101869.00;;;19.24;41.58
62710;BME280;48770;51.624;5.886;2023-02-21T08:19:48;101863.78;;;19.22;41.57
62710;BME280;48770;51.624;5.886;2023-02-21T08:22:14;101867.34;;;19.23;41.53
62710;BME280;48770;51.624;5.886;2023-02-21T08:24:39;101861.00;;;19.22;41.52
62710;BME280;48770;51.624;5.886;2023-02-21T08:27:04;101864.91;;;19.21;41.27
62710;BME280;48770;51.624;5.886;2023-02-21T08:29:30;101867.69;;;19.21;41.25
62710;BME280;48770;51.624;5.886;2023-02-21T08:31:55;101863.28;;;19.20;41.40
62710;BME280;48770;51.624;5.886;2023-02-21T08:34:20;101855.44;;;19.22;41.50
62710;BME280;48770;51.624;5.886;2023-02-21T08:36:46;101853.00;;;19.21;41.32
62710;BME280;48770;51.624;5.886;2023-02-21T08:39:11;101857.72;;;19.20;41.42
62710;BME280;48770;51.624;5.886;2023-02-21T08:41:38;101858.22;;;19.22;41.36
62710;BME280;48770;51.624;5.886;2023-02-21T08:44:05;101853.81;;;19.21;41.41
62710;BME280;48770;51.624;5.886;2023-02-21T08:46:31;101849.09;;;19.22;41.44
62710;BME280;48770;51.624;5.886;2023-02-21T08:48:56;101857.72;;;19.20;41.55
62710;BME280;48770;51.624;5.886;2023-02-21T08:51:29;101843.88;;;19.20;41.48
62710;BME280;48770;51.624;5.886;2023-02-21T08:53:54;101839.44;;;19.19;41.22
62710;BME280;48770;51.624;5.886;2023-02-21T08:56:22;101843.88;;;19.20;41.37
62710;BME280;48770;51.624;5.886;2023-02-21T08:58:47;101847.44;;;19.21;41.39
62710;BME280;48770;51.624;5.886;2023-02-21T09:01:13;101851.38;;;19.20;41.41
62710;BME280;48770;51.624;5.886;2023-02-21T09:03:38;101845.81;;;19.20;41.46
62710;BME280;48770;51.624;5.886;2023-02-21T09:06:05;101845.00;;;19.19;41.48
62710;BME280;48770;51.624;5.886;2023-02-21T09:08:30;101849.41;;;19.20;41.58
62710;BME280;48770;51.624;5.886;2023-02-21T09:10:56;101838.31;;;19.20;41.34
62710;BME280;48770;51.624;5.886;2023-02-21T09:13:28;101845.81;;;19.20;41.25
62710;BME280;48770;51.624;5.886;2023-02-21T09:15:55;101835.53;;;19.20;41.42
62710;BME280;48770;51.624;5.886;2023-02-21T09:18:21;101831.97;;;19.20;41.53
62710;BME280;48770;51.624;5.886;2023-02-21T09:20:46;101833.91;;;19.19;41.38
62710;BME280;48770;51.624;5.886;2023-02-21T09:23:19;101839.44;;;19.19;41.45
62710;BME280;48770;51.624;5.886;2023-02-21T09:25:46;101839.44;;;19.19;41.40
62710;BME280;48770;51.624;5.886;2023-02-21T09:28:11;101836.69;;;19.19;41.49
62710;BME280;48770;51.624;5.886;2023-02-21T09:30:37;101833.09;;;19.19;41.46
62710;BME280;48770;51.624;5.886;2023-02-21T09:33:02;101832.28;;;19.18;41.52
62710;BME280;48770;51.624;5.886;2023-02-21T09:35:28;101832.28;;;19.18;41.35
62710;BME280;48770;51.624;5.886;2023-02-21T09:37:57;101830.31;;;19.19;41.35
62710;BME280;48770;51.624;5.886;2023-02-21T09:42:49;101832.28;;;19.18;41.61
62710;BME280;48770;51.624;5.886;2023-02-21T09:45:17;101823.97;;;19.18;41.34
62710;BME280;48770;51.624;5.886;2023-02-21T09:47:49;101827.88;;;19.17;41.51
62710;BME280;48770;51.624;5.886;2023-02-21T09:50:20;101832.28;;;19.18;41.38
62710;BME280;48770;51.624;5.886;2023-02-21T09:52:48;101825.09;;;19.17;41.51
62710;BME280;48770;51.624;5.886;2023-02-21T09:57:51;101826.22;;;19.16;41.61
62710;BME280;48770;51.624;5.886;2023-02-21T10:00:19;101829.81;;;19.17;41.46
62710;BME280;48770;51.624;5.886;2023-02-21T10:02:57;101827.88;;;19.17;41.53
62710;BME280;48770;51.624;5.886;2023-02-21T10:10:42;101823.78;;;19.15;41.35
62710;BME280;48770;51.624;5.886;2023-02-21T10:18:32;101832.09;;;19.15;41.25
62710;BME280;48770;51.624;5.886;2023-02-21T10:21:01;101826.56;;;19.15;41.40
62710;BME280;48770;51.624;5.886;2023-02-21T10:23:42;101832.91;;;19.15;41.54
62710;BME280;48770;51.624;5.886;2023-02-21T10:26:11;101831.28;;;19.14;41.57
62710;BME280;48770;51.624;5.886;2023-02-21T10:28:37;101832.91;;;19.15;41.67
62710;BME280;48770;51.624;5.886;2023-02-21T10:31:11;101824.59;;;19.15;41.38
62710;BME280;48770;51.624;5.886;2023-02-21T10:33:38;101830.13;;;19.15;41.54
62710;BME280;48770;51.624;5.886;2023-02-21T10:36:16;101831.78;;;19.16;41.37
62710;BME280;48770;51.624;5.886;2023-02-21T10:38:53;101828.50;;;19.14;41.27
62710;BME280;48770;51.624;5.886;2023-02-21T10:41:20;101823.78;;;19.15;41.38
62710;BME280;48770;51.624;5.886;2023-02-21T10:43:49;101827.38;;;19.15;41.31
62710;BME280;48770;51.624;5.886;2023-02-21T10:46:42;101821.31;;;19.13;41.46
62710;BME280;48770;51.624;5.886;2023-02-21T10:54:32;101826.06;;;19.13;41.38
62710;BME280;48770;51.624;5.886;2023-02-21T10:56:59;101829.31;;;19.15;41.45
62710;BME280;48770;51.624;5.886;2023-02-21T10:59:27;101832.09;;;19.15;41.49
62710;BME280;48770;51.624;5.886;2023-02-21T11:01:55;101830.13;;;19.15;41.30
62710;BME280;48770;51.624;5.886;2023-02-21T11:07:03;101823.78;;;19.15;41.30
62710;BME280;48770;51.624;5.886;2023-02-21T11:12:22;101816.91;;;19.12;41.43
62710;BME280;48770;51.624;5.886;2023-02-21T11:17:22;101820.50;;;19.13;41.36
62710;BME280;48770;51.624;5.886;2023-02-21T11:19:55;101825.22;;;19.12;41.43
62710;BME280;48770;51.624;5.886;2023-02-21T11:22:22;101817.22;;;19.10;41.44
62710;BME280;48770;51.624;5.886;2023-02-21T11:27:22;101806.97;;;19.11;41.49
62710;BME280;48770;51.624;5.886;2023-02-21T11:29:49;101806.63;;;19.13;41.45
62710;BME280;48770;51.624;5.886;2023-02-21T11:32:23;101807.47;;;19.13;41.48
62710;BME280;48770;51.624;5.886;2023-02-21T11:34:50;101803.88;;;19.13;41.44
62710;BME280;48770;51.624;5.886;2023-02-21T11:37:16;101799.66;;;19.15;41.70
62710;BME280;48770;51.624;5.886;2023-02-21T11:39:49;101801.28;;;19.16;41.50
62710;BME280;48770;51.624;5.886;2023-02-21T11:47:45;101798.00;;;19.14;41.77
62710;BME280;48770;51.624;5.886;2023-02-21T11:50:24;101796.22;;;19.18;41.74
62710;BME280;48770;51.624;5.886;2023-02-21T11:55:52;101780.09;;;19.20;41.51
62710;BME280;48770;51.624;5.886;2023-02-21T11:58:24;101780.28;;;19.24;41.84
62710;BME280;48770;51.624;5.886;2023-02-21T12:00:59;101781.28;;;19.28;41.88
62710;BME280;48770;51.624;5.886;2023-02-21T12:04:00;101775.75;;;19.28;41.61
62710;BME280;48770;51.624;5.886;2023-02-21T12:06:43;101777.88;;;19.31;41.74
62710;BME280;48770;51.624;5.886;2023-02-21T12:09:15;101769.41;;;19.36;41.59
62710;BME280;48770;51.624;5.886;2023-02-21T12:11:59;101762.91;;;19.40;41.67
62710;BME280;48770;51.624;5.886;2023-02-21T12:14:37;101761.13;;;19.45;41.54
62710;BME280;48770;51.624;5.886;2023-02-21T12:17:13;101758.53;;;19.48;41.29
62710;BME280;48770;51.624;5.886;2023-02-21T12:22:48;101762.84;;;19.54;41.26
62710;BME280;48770;51.624;5.886;2023-02-21T12:33:48;101748.50;;;19.69;40.76
62710;BME280;48770;51.624;5.886;2023-02-21T12:36:23;101741.50;;;19.72;41.14
62710;BME280;48770;51.624;5.886;2023-02-21T12:39:00;101742.47;;;19.76;40.98
62710;BME280;48770;51.624;5.886;2023-02-21T12:47:23;101737.94;;;19.80;40.94
62710;BME280;48770;51.624;5.886;2023-02-21T12:50:14;101737.13;;;19.80;40.89
62710;BME280;48770;51.624;5.886;2023-02-21T12:52:56;101735.66;;;19.82;41.11
62710;BME280;48770;51.624;5.886;2023-02-21T12:58:17;101735.34;;;19.84;40.71
62710;BME280;48770;51.624;5.886;2023-02-21T13:06:35;101728.31;;;19.86;40.58
62710;BME280;48770;51.624;5.886;2023-02-21T13:12:12;101733.88;;;19.86;40.71
62710;BME280;48770;51.624;5.886;2023-02-21T13:14:49;101720.00;;;19.86;40.84
62710;BME280;48770;51.624;5.886;2023-02-21T13:17:16;101724.06;;;19.89;40.92
62710;BME280;48770;51.624;5.886;2023-02-21T13:22:26;101716.56;;;19.89;40.42
62710;BME280;48770;51.624;5.886;2023-02-21T13:28:19;101708.88;;;19.86;40.77
62710;BME280;48770;51.624;5.886;2023-02-21T13:30:50;101710.53;;;19.87;40.73
62710;BME280;48770;51.624;5.886;2023-02-21T13:33:41;101704.47;;;19.85;40.70
62710;BME280;48770;51.624;5.886;2023-02-21T13:39:11;101698.44;;;19.83;40.81
62710;BME280;48770;51.624;5.886;2023-02-21T13:41:54;101699.25;;;19.84;40.92
62710;BME280;48770;51.624;5.886;2023-02-21T13:44:30;101696.47;;;19.84;40.77
62710;BME280;48770;51.624;5.886;2023-02-21T13:47:12;101695.34;;;19.85;40.81
62710;BME280;48770;51.624;5.886;2023-02-21T13:52:25;101690.44;;;19.82;40.68
62710;BME280;48770;51.624;5.886;2023-02-21T13:57:39;101682.44;;;19.80;40.88
62710;BME280;48770;51.624;5.886;2023-02-21T14:03:41;101685.84;;;19.77;40.81
62710;BME280;48770;51.624;5.886;2023-02-21T14:11:56;101685.19;;;19.71;40.90
62710;BME280;48770;51.624;5.886;2023-02-21T14:13:59;101681.59;;;19.71;40.92
62710;BME280;48770;51.624;5.886;2023-02-21T14:16:33;101674.91;;;19.72;40.86
62710;BME280;48770;51.624;5.886;2023-02-21T14:19:06;101675.22;;;19.70;40.73
62710;BME280;48770;51.624;5.886;2023-02-21T14:26:56;101676.19;;;19.66;41.14
62710;BME280;48770;51.624;5.886;2023-02-21T14:34:49;101667.38;;;19.64;41.04
62710;BME280;48770;51.624;5.886;2023-02-21T14:39:51;101671.31;;;19.63;41.08
62710;BME280;48770;51.624;5.886;2023-02-21T14:59:16;101665.44;;;19.56;41.42
62710;BME280;48770;51.624;5.886;2023-02-21T15:09:31;101664.13;;;19.62;41.76
62710;BME280;48770;51.624;5.886;2023-02-21T15:11:57;101652.69;;;19.63;41.71
62710;BME280;48770;51.624;5.886;2023-02-21T15:14:37;101656.78;;;19.66;41.74
62710;BME280;48770;51.624;5.886;2023-02-21T15:17:13;101655.63;;;19.67;41.90
62710;BME280;48770;51.624;5.886;2023-02-21T15:19:40;101654.50;;;19.68;41.79
62710;BME280;48770;51.624;5.886;2023-02-21T15:22:23;101647.00;;;19.68;41.70
62710;BME280;48770;51.624;5.886;2023-02-21T15:27:22;101642.41;;;19.73;41.84
62710;BME280;48770;51.624;5.886;2023-02-21T15:30:12;101644.38;;;19.72;41.68
62710;BME280;48770;51.624;5.886;2023-02-21T15:32:38;101644.88;;;19.74;42.00
62710;BME280;48770;51.624;5.886;2023-02-21T15:35:05;101639.81;;;19.76;41.83
62710;BME280;48770;51.624;5.886;2023-02-21T15:37:37;101640.31;;;19.78;41.94
62710;BME280;48770;51.624;5.886;2023-02-21T15:40:11;101646.38;;;19.80;41.83
62710;BME280;48770;51.624;5.886;2023-02-21T15:42:40;101644.72;;;19.79;41.86
62710;BME280;48770;51.624;5.886;2023-02-21T15:45:39;101638.84;;;19.81;41.73
62710;BME280;48770;51.624;5.886;2023-02-21T15:48:01;101639.66;;;19.81;41.93
62710;BME280;48770;51.624;5.886;2023-02-21T15:50:34;101640.16;;;19.83;41.87
62710;BME280;48770;51.624;5.886;2023-02-21T15:53:16;101637.38;;;19.83;41.93
62710;BME280;48770;51.624;5.886;2023-02-21T15:55:42;101632.00;;;19.87;41.79